Winston Salem, North Carolina
Current Conditions -  °F | °C
As of 2:54 AM on Tuesday 21 Oct 2014 (Local Time) from KINT Reporting Station
Overcast Overcast  
Wind Chill: 57°   Ceiling: 6500
Heat Index: 57°   Visibility: 10mi
Dew Point: 49°   Wind: 0mph
Humidity: 74%   Direction: NA
Pressure: 29.96"   Gusts: NA
Location:  36.1112°N, 80.1999°W
Report Text: KINT 210654Z AUTO 00000KT 10SM SCT049 OVC065 14/09 A2996 RMK AO2 SLP138 T01390094
Loading
Personal Weather Stations






























Interactive Weather Map
Tropical Storm Tracking
New forecast layout! Learn more

10-Day Weather Forecast

Advertisements
Track Severe Weather on mobile